Time;durP1;ratioP1;P1;durP2;ratioP2;P2;SDS_P1;SDS_P2;PMS_P1;PMS_P2;Temp;Humidity;BMP_temperature;BMP_pressure;BME280_temperature;BME280_humidity;BME280_pressure;Samples;Min_cycle;Max_cycle;Signal;HPM_P1;HPM_P2
2023/08/11 00:01:59;;;;;;;13.80;9.20;;;;;;;14.52;65.78;100943.23;110694;1261;22030;-78
2023/08/11 00:04:39;;;;;;;14.60;9.00;;;;;;;14.51;65.78;100946.21;110968;1262;21973;-78
2023/08/11 00:07:13;;;;;;;11.90;8.60;;;;;;;14.46;65.61;100942.42;110666;1257;22842;-80
2023/08/11 00:09:44;;;;;;;14.80;8.70;;;;;;;14.38;65.76;100942.25;111188;1255;21961;-81
2023/08/11 00:12:13;;;;;;;13.60;8.70;;;;;;;14.28;65.91;100944.23;111092;1255;21960;-78
2023/08/11 00:14:46;;;;;;;16.70;9.60;;;;;;;14.20;65.95;100943.55;111054;1255;22376;-79
2023/08/11 00:17:17;;;;;;;14.60;8.80;;;;;;;14.13;66.29;100944.40;111252;1255;23013;-79
2023/08/11 00:19:48;;;;;;;17.60;9.00;;;;;;;14.04;66.33;100943.55;110596;1261;22028;-78
2023/08/11 00:22:22;;;;;;;12.50;8.90;;;;;;;13.92;66.45;100939.84;110705;1261;23036;-79
2023/08/11 00:24:53;;;;;;;12.60;9.20;;;;;;;13.86;66.65;100940.63;110682;1261;22936;-80
2023/08/11 00:27:22;;;;;;;16.90;10.00;;;;;;;13.83;66.87;100940.05;110749;1261;23723;-79
2023/08/11 00:29:51;;;;;;;15.30;9.30;;;;;;;13.82;67.02;100940.11;110189;1266;22261;-80
2023/08/11 00:32:25;;;;;;;13.70;8.40;;;;;;;13.79;67.09;100941.80;110294;1266;22296;-80
2023/08/11 00:34:54;;;;;;;15.50;9.00;;;;;;;13.78;67.19;100945.53;110644;1266;21969;-80
2023/08/11 00:37:26;;;;;;;14.80;8.40;;;;;;;13.76;67.27;100941.77;110459;1261;22161;-80
2023/08/11 00:40:11;;;;;;;11.70;8.50;;;;;;;13.69;67.33;100940.09;110724;1261;22707;-78
2023/08/11 00:42:51;;;;;;;15.10;9.60;;;;;;;13.64;67.55;100951.34;110829;1262;23613;-80
2023/08/11 00:45:25;;;;;;;14.30;9.00;;;;;;;13.59;67.89;100950.84;110645;1258;21975;-79
2023/08/11 00:47:56;;;;;;;14.00;8.50;;;;;;;13.58;68.04;100948.27;110064;1268;22028;-79
2023/08/11 00:50:36;;;;;;;13.30;8.10;;;;;;;13.54;68.11;100943.70;109994;1268;22136;-79
2023/08/11 00:53:11;;;;;;;14.00;9.40;;;;;;;13.46;68.16;100943.30;109977;1268;22180;-80
2023/08/11 00:55:44;;;;;;;12.70;8.20;;;;;;;13.39;68.36;100943.23;109548;1268;22001;-80
2023/08/11 00:58:14;;;;;;;13.30;8.90;;;;;;;13.34;68.75;100943.27;109603;1271;22015;-78
2023/08/11 01:00:46;;;;;;;12.30;9.00;;;;;;;13.30;68.93;100943.56;109338;1272;22169;-81
2023/08/11 01:03:22;;;;;;;15.90;9.80;;;;;;;13.28;69.07;100945.23;109473;1271;21977;-79
2023/08/11 01:06:14;;;;;;;11.70;8.70;;;;;;;13.25;69.42;100949.52;109571;1268;22455;-79
2023/08/11 01:08:58;;;;;;;11.80;9.00;;;;;;;13.22;69.69;100947.89;109268;1273;21949;-78
2023/08/11 01:11:45;;;;;;;14.00;9.70;;;;;;;13.21;69.72;100937.81;109268;1273;21986;-80
2023/08/11 01:14:53;;;;;;;30.50;27.70;;;;;;;13.17;69.83;100939.38;109729;1267;23022;-79
2023/08/11 01:17:26;;;;;;;42.40;38.70;;;;;;;13.11;70.11;100942.58;109686;1269;21987;-78
2023/08/11 01:20:10;;;;;;;51.50;47.20;;;;;;;13.11;70.28;100942.92;109884;1269;23726;-79
2023/08/11 01:22:55;;;;;;;27.00;24.50;;;;;;;13.13;70.30;100946.86;109759;1269;21974;-80
2023/08/11 01:25:34;;;;;;;20.50;18.30;;;;;;;13.12;70.37;100940.95;109570;1272;23714;-79
2023/08/11 01:28:06;;;;;;;13.30;11.90;;;;;;;13.14;70.35;100939.31;110070;1266;23639;-79
2023/08/11 01:30:42;;;;;;;12.90;9.80;;;;;;;13.14;70.28;100939.49;109613;1273;21974;-79
2023/08/11 01:33:18;;;;;;;13.60;10.00;;;;;;;13.12;70.03;100934.84;109343;1273;23090;-79
2023/08/11 01:35:47;;;;;;;12.50;9.20;;;;;;;13.05;69.99;100935.96;108849;1274;22550;-79
2023/08/11 01:38:15;;;;;;;12.90;9.40;;;;;;;12.99;70.02;100938.85;109196;1278;22153;-78
2023/08/11 01:40:54;;;;;;;12.00;9.10;;;;;;;12.95;70.02;100938.81;108760;1277;23015;-79
2023/08/11 01:43:32;;;;;;;12.70;8.20;;;;;;;12.91;70.07;100938.63;108699;1280;22340;-79
2023/08/11 01:46:02;;;;;;;15.30;8.90;;;;;;;12.88;69.91;100940.48;108821;1280;22010;-80
2023/08/11 01:48:37;;;;;;;12.30;8.90;;;;;;;12.86;69.81;100936.89;108720;1280;23677;-78
2023/08/11 01:51:09;;;;;;;12.20;8.40;;;;;;;12.86;69.95;100932.88;108357;1285;22323;-78
2023/08/11 01:53:42;;;;;;;12.50;9.00;;;;;;;12.89;70.02;100932.08;108615;1281;22112;-80
2023/08/11 01:56:28;;;;;;;12.10;9.20;;;;;;;12.86;69.94;100929.56;109162;1275;23042;-78
2023/08/11 01:59:14;;;;;;;13.00;8.70;;;;;;;12.87;70.03;100930.02;109227;1273;21992;-79
2023/08/11 02:01:43;;;;;;;14.10;8.90;;;;;;;12.87;69.72;100929.52;109684;1269;23046;-79
2023/08/11 02:04:16;;;;;;;9.30;8.10;;;;;;;12.87;69.49;100931.98;109827;1269;22057;-78
2023/08/11 02:06:55;;;;;;;10.90;9.00;;;;;;;12.83;69.37;100929.30;109622;1269;21964;-79
2023/08/11 02:09:24;;;;;;;12.20;9.70;;;;;;;12.79;69.24;100930.19;110694;1262;22751;-79
2023/08/11 02:11:55;;;;;;;12.20;9.40;;;;;;;12.74;69.29;100932.45;110251;1268;23041;-79
2023/08/11 02:14:24;;;;;;;14.70;8.70;;;;;;;12.73;69.44;100932.83;109904;1262;23998;-78
2023/08/11 02:16:56;;;;;;;11.70;9.20;;;;;;;12.75;69.59;100935.91;110637;1261;22028;-80
2023/08/11 02:19:28;;;;;;;18.10;10.80;;;;;;;12.74;69.39;100934.38;110486;1261;23722;-78
2023/08/11 02:22:05;;;;;;;12.70;10.00;;;;;;;12.68;69.28;100932.13;110517;1261;21963;-78
2023/08/11 02:24:39;;;;;;;16.50;10.40;;;;;;;12.64;69.24;100930.05;110580;1261;24401;-79
2023/08/11 02:27:10;;;;;;;15.40;10.40;;;;;;;12.61;69.34;100930.66;110634;1261;22059;-79
2023/08/11 02:29:49;;;;;;;14.00;10.80;;;;;;;12.51;69.36;100934.17;110875;1256;22487;-79
2023/08/11 02:32:26;;;;;;;13.80;10.40;;;;;;;12.43;69.42;100930.27;111140;1244;21970;-80
2023/08/11 02:35:00;;;;;;;12.10;10.40;;;;;;;12.37;69.50;100935.20;111099;1256;21967;-80
2023/08/11 02:37:37;;;;;;;13.90;9.70;;;;;;;12.34;69.57;100934.98;111250;1251;24333;-80
2023/08/11 02:40:22;;;;;;;12.80;10.50;;;;;;;12.33;69.68;100936.37;111159;1256;22965;-79
2023/08/11 02:43:02;;;;;;;13.70;11.00;;;;;;;12.33;69.83;100936.40;111513;1254;22795;-79
2023/08/11 02:45:46;;;;;;;14.70;12.10;;;;;;;12.33;69.79;100933.95;111101;1255;21960;-80
2023/08/11 02:48:23;;;;;;;14.70;10.30;;;;;;;12.28;69.76;100932.54;111061;1256;22003;-79
2023/08/11 02:50:58;;;;;;;15.60;11.20;;;;;;;12.26;69.66;100938.39;110984;1256;21964;-79
2023/08/11 02:53:29;;;;;;;14.80;10.40;;;;;;;12.28;69.96;100938.16;111332;1257;23598;-78
2023/08/11 02:56:06;;;;;;;18.30;13.20;;;;;;;12.31;69.84;100932.29;111068;1256;21969;-79
2023/08/11 02:58:37;;;;;;;15.70;12.50;;;;;;;12.30;69.95;100941.38;110807;1261;23658;-78
2023/08/11 03:01:12;;;;;;;14.30;11.90;;;;;;;12.33;70.17;100945.30;110539;1261;22072;-79
2023/08/11 03:03:50;;;;;;;17.40;12.20;;;;;;;12.38;70.37;100941.27;109869;1268;23620;-79
2023/08/11 03:06:35;;;;;;;14.40;12.30;;;;;;;12.43;70.21;100939.70;109711;1267;22014;-80
2023/08/11 03:09:10;;;;;;;19.20;12.30;;;;;;;12.47;70.12;100939.52;109370;1272;22735;-79
2023/08/11 03:11:44;;;;;;;15.60;11.90;;;;;;;12.51;69.97;100943.23;109670;1272;22751;-79
2023/08/11 03:14:13;;;;;;;15.30;10.70;;;;;;;12.55;69.90;100947.11;109643;1272;23719;-79
2023/08/11 03:16:54;;;;;;;14.40;11.30;;;;;;;12.58;69.79;100949.11;109645;1254;21978;-79
2023/08/11 03:19:27;;;;;;;14.90;10.70;;;;;;;12.60;69.62;100951.66;110054;1267;21993;-80
2023/08/11 03:22:02;;;;;;;21.50;12.30;;;;;;;12.60;69.55;100954.27;110229;1261;22046;-78
2023/08/11 03:24:57;;;;;;;13.80;11.90;;;;;;;12.59;69.46;100954.13;110564;1261;21965;-79
2023/08/11 03:27:26;;;;;;;14.30;10.80;;;;;;;12.57;69.51;100952.11;111104;1256;22265;-79
2023/08/11 03:30:09;;;;;;;13.60;10.60;;;;;;;12.57;69.37;100959.79;111082;1254;21973;-79
2023/08/11 03:32:47;;;;;;;14.00;10.80;;;;;;;12.56;69.45;100958.64;110837;1257;21960;-79
2023/08/11 03:35:23;;;;;;;14.20;11.10;;;;;;;12.55;69.34;100961.45;110880;1257;22969;-80
2023/08/11 03:38:02;;;;;;;34.20;30.70;;;;;;;12.54;69.42;100964.63;111199;1256;21964;-80
2023/08/11 03:40:37;;;;;;;23.70;13.10;;;;;;;12.54;69.67;100965.30;110742;1260;21998;-79
2023/08/11 03:43:21;;;;;;;18.00;11.70;;;;;;;12.55;69.84;100962.50;110720;1254;22919;-79
2023/08/11 03:45:55;;;;;;;14.90;12.80;;;;;;;12.56;69.85;100964.04;110828;1260;22980;-78
2023/08/11 03:48:30;;;;;;;13.80;11.40;;;;;;;12.56;69.90;100962.64;110789;1260;21964;-79
2023/08/11 03:51:04;;;;;;;23.90;13.60;;;;;;;12.57;69.89;100962.95;110049;1268;21977;-78
2023/08/11 03:53:42;;;;;;;19.20;12.80;;;;;;;12.56;70.00;100961.73;110175;1267;22048;-81
2023/08/11 03:56:11;;;;;;;19.20;13.80;;;;;;;12.56;69.90;100962.28;110086;1268;22743;-79
2023/08/11 03:58:44;;;;;;;15.60;13.50;;;;;;;12.58;70.11;100962.37;110431;1263;21970;-80
2023/08/11 04:01:28;;;;;;;17.20;12.70;;;;;;;12.60;69.98;100962.84;110913;1259;21974;-80
2023/08/11 04:04:02;;;;;;;16.30;13.50;;;;;;;12.59;70.08;100969.33;110512;1263;23844;-79
2023/08/11 04:06:37;;;;;;;17.70;13.00;;;;;;;12.61;70.11;100971.70;110303;1261;21963;-80
2023/08/11 04:09:08;;;;;;;16.80;13.40;;;;;;;12.63;70.18;100975.80;110624;1257;21972;-79
2023/08/11 04:11:49;;;;;;;17.50;13.90;;;;;;;12.69;70.31;100979.45;111030;1257;23157;-80
2023/08/11 04:14:20;;;;;;;15.40;11.90;;;;;;;12.75;70.34;100978.19;111123;1257;23586;-79
2023/08/11 04:16:56;;;;;;;18.30;14.20;;;;;;;12.80;70.44;100976.92;111204;1257;21969;-80
2023/08/11 04:19:35;;;;;;;22.00;16.30;;;;;;;12.86;70.44;100980.36;110951;1256;23570;-80
2023/08/11 04:22:21;;;;;;;26.60;17.10;;;;;;;12.90;70.36;100979.88;110878;1261;22010;-80
2023/08/11 04:25:10;;;;;;;24.10;16.80;;;;;;;12.96;70.32;100979.48;110793;1261;22259;-80
2023/08/11 04:27:50;;;;;;;20.30;14.50;;;;;;;13.02;70.33;100980.29;110333;1267;23722;-79
2023/08/11 04:30:29;;;;;;;19.20;13.70;;;;;;;13.09;70.31;100980.76;110149;1266;22008;-80
2023/08/11 04:33:05;;;;;;;23.10;14.80;;;;;;;13.14;70.37;100980.19;110408;1266;22002;-80
2023/08/11 04:35:43;;;;;;;17.70;13.00;;;;;;;13.21;70.32;100977.15;109951;1267;21971;-78
2023/08/11 04:38:17;;;;;;;20.20;12.30;;;;;;;13.28;70.19;100978.10;109724;1268;21971;-80
2023/08/11 04:40:51;;;;;;;19.50;13.60;;;;;;;13.36;70.23;100979.73;109662;1269;22378;-79
2023/08/11 04:43:22;;;;;;;23.50;12.20;;;;;;;13.43;70.22;100982.40;109756;1268;23618;-79
2023/08/11 04:46:06;;;;;;;22.40;13.60;;;;;;;13.52;70.12;100977.89;109978;1268;21973;-79
2023/08/11 04:49:00;;;;;;;20.60;17.60;;;;;;;13.60;70.12;100977.55;111914;1254;21958;-81
2023/08/11 04:51:33;;;;;;;17.80;14.10;;;;;;;13.73;70.11;100980.70;110828;1256;22015;-81
2023/08/11 04:54:10;;;;;;;17.90;11.80;;;;;;;13.83;69.93;100976.79;111285;1247;22735;-81
2023/08/11 04:56:52;;;;;;;;;;;;;;;;;;;;;
2023/08/11 04:59:37;;;;;;;20.40;15.10;;;;;;;14.01;69.66;100981.27;111044;1258;21971;-79
2023/08/11 05:02:09;;;;;;;13.90;12.50;;;;;;;14.10;69.34;100984.61;111265;1257;22016;-79
2023/08/11 05:04:51;;;;;;;20.80;16.10;;;;;;;14.17;68.86;100987.45;110775;1258;22014;-79
2023/08/11 05:07:28;;;;;;;22.70;17.10;;;;;;;14.23;68.53;100986.98;110814;1258;21989;-78
2023/08/11 05:09:57;;;;;;;17.70;14.90;;;;;;;14.34;68.33;100985.50;110876;1258;23011;-78
2023/08/11 05:12:29;;;;;;;17.10;13.70;;;;;;;14.48;68.22;100986.61;111191;1257;21967;-78
2023/08/11 05:14:58;;;;;;;19.80;15.50;;;;;;;14.65;67.97;100991.17;110520;1265;21974;-79
2023/08/11 05:17:43;;;;;;;23.70;15.00;;;;;;;14.79;67.84;100992.66;109900;1270;22004;-79
2023/08/11 05:20:17;;;;;;;16.90;13.90;;;;;;;15.00;67.58;100990.29;109043;1276;21993;-79
2023/08/11 05:22:54;;;;;;;16.40;13.60;;;;;;;15.13;67.23;100988.96;108715;1278;23721;-78
2023/08/11 05:25:26;;;;;;;20.10;14.10;;;;;;;15.30;66.65;100988.03;109171;1279;21983;-79
2023/08/11 05:27:57;;;;;;;15.80;13.70;;;;;;;15.46;66.64;100987.63;108955;1279;22000;-79
2023/08/11 05:30:44;;;;;;;17.80;14.00;;;;;;;15.69;66.34;100984.94;109008;1269;21993;-79
2023/08/11 05:33:21;;;;;;;19.80;14.60;;;;;;;15.89;65.53;100987.31;108738;1279;21992;-77
2023/08/11 05:36:03;;;;;;;19.60;13.80;;;;;;;16.09;65.22;100990.86;109017;1273;22027;-79
2023/08/11 05:38:42;;;;;;;21.40;13.90;;;;;;;16.34;64.86;100993.61;109689;1270;23669;-78
2023/08/11 05:41:26;;;;;;;25.30;17.40;;;;;;;16.56;64.23;100993.02;110028;1265;21992;-79
2023/08/11 05:43:57;;;;;;;23.00;15.30;;;;;;;16.84;64.18;100992.07;110542;1264;21970;-80
2023/08/11 05:46:38;;;;;;;22.40;12.90;;;;;;;17.22;64.00;100987.39;110607;1265;21970;-79
2023/08/11 05:49:18;;;;;;;20.10;12.60;;;;;;;17.60;63.31;100987.52;110354;1265;23054;-79
2023/08/11 05:51:56;;;;;;;20.40;10.70;;;;;;;17.98;62.47;100991.89;110903;1258;22196;-78
2023/08/11 05:54:29;;;;;;;17.60;9.40;;;;;;;18.35;61.63;100996.74;110814;1257;22057;-79
2023/08/11 05:57:04;;;;;;;19.40;11.40;;;;;;;18.68;60.33;100991.59;111083;1258;21962;-80
2023/08/11 05:59:36;;;;;;;22.30;11.40;;;;;;;19.01;59.26;100987.94;111101;1258;21970;-79
2023/08/11 06:02:21;;;;;;;14.10;10.30;;;;;;;19.33;57.93;100992.08;111112;1257;21962;-79
2023/08/11 06:04:53;;;;;;;21.40;11.00;;;;;;;19.59;56.96;100990.23;111073;1258;22143;-80
2023/08/11 06:07:26;;;;;;;23.20;10.10;;;;;;;19.90;56.58;100994.42;111071;1258;21973;-79
2023/08/11 06:09:59;;;;;;;14.90;9.00;;;;;;;20.21;55.61;100996.42;110651;1264;21968;-79
2023/08/11 06:12:31;;;;;;;17.60;10.60;;;;;;;20.40;54.18;100997.40;110437;1265;23607;-81
2023/08/11 06:15:11;;;;;;;16.30;11.10;;;;;;;20.57;53.59;100995.52;110267;1264;23092;-79
2023/08/11 06:17:49;;;;;;;17.20;12.50;;;;;;;20.80;53.53;100995.90;110638;1265;21973;-78
2023/08/11 06:20:23;;;;;;;16.30;9.50;;;;;;;21.11;52.86;100999.15;109757;1271;22742;-79
2023/08/11 06:23:14;;;;;;;16.50;9.70;;;;;;;21.52;52.70;101003.28;109295;1276;21993;-79
2023/08/11 06:25:46;;;;;;;14.40;9.20;;;;;;;21.92;51.32;101004.80;109226;1276;21985;-79
2023/08/11 06:28:31;;;;;;;15.90;9.30;;;;;;;22.32;50.53;101006.03;109448;1270;23026;-78
2023/08/11 06:31:35;;;;;;;12.20;8.30;;;;;;;22.83;49.55;101009.52;109931;1262;21964;-79
2023/08/11 06:34:16;;;;;;;20.40;9.10;;;;;;;23.16;48.57;101012.38;109753;1270;22039;-78
2023/08/11 06:37:00;;;;;;;12.90;8.10;;;;;;;23.53;47.95;101014.39;109803;1270;22401;-77
2023/08/11 06:39:33;;;;;;;9.70;7.40;;;;;;;23.89;46.83;101012.48;110143;1265;22017;-79
2023/08/11 06:42:02;;;;;;;16.00;8.80;;;;;;;24.16;45.75;101013.65;110793;1258;22756;-78
2023/08/11 06:45:10;;;;;;;12.80;7.80;;;;;;;24.32;44.75;101013.69;111326;1257;23694;-80
2023/08/11 06:47:40;;;;;;;14.60;8.60;;;;;;;24.57;44.92;101018.50;110976;1258;21974;-77
2023/08/11 06:50:20;;;;;;;11.70;7.20;;;;;;;24.91;44.44;101017.39;110981;1257;21971;-78
2023/08/11 06:52:50;;;;;;;12.10;7.70;;;;;;;25.25;43.61;101020.47;110874;1258;21966;-77
2023/08/11 06:55:19;;;;;;;12.60;7.90;;;;;;;25.50;42.67;101023.52;110334;1265;22238;-78
2023/08/11 06:57:51;;;;;;;19.20;8.30;;;;;;;25.76;42.27;101025.45;109980;1265;21972;-78
2023/08/11 07:00:23;;;;;;;12.00;8.30;;;;;;;26.05;41.54;101021.23;110243;1264;22007;-78
2023/08/11 07:02:58;;;;;;;14.80;8.40;;;;;;;26.19;40.27;101022.98;110417;1264;23718;-77
2023/08/11 07:05:27;;;;;;;15.90;11.20;;;;;;;26.19;39.59;101022.73;110414;1264;22898;-77
2023/08/11 07:07:55;;;;;;;12.60;8.20;;;;;;;26.32;39.74;101029.75;110204;1265;23044;-78
2023/08/11 07:10:29;;;;;;;12.40;8.90;;;;;;;26.59;39.92;101034.04;110230;1264;22010;-78
2023/08/11 07:13:03;;;;;;;10.80;7.00;;;;;;;26.86;39.39;101035.01;109686;1263;21973;-79
2023/08/11 07:15:42;;;;;;;11.90;7.20;;;;;;;27.12;38.79;101037.48;110508;1263;22554;-80
2023/08/11 07:18:14;;;;;;;8.00;6.30;;;;;;;27.33;38.26;101045.16;110557;1262;21987;-80
2023/08/11 07:20:53;;;;;;;9.60;6.40;;;;;;;27.50;37.95;101044.58;110101;1259;21981;-78
2023/08/11 07:23:25;;;;;;;9.90;5.10;;;;;;;27.66;37.61;101045.13;110147;1255;22019;-80
2023/08/11 07:25:55;;;;;;;;;;;;;;;27.82;37.55;101046.28;109683;1269;21946;-79
2023/08/11 07:28:29;;;;;;;12.50;7.10;;;;;;;27.83;37.09;101048.96;109924;1268;22052;-80
2023/08/11 07:31:10;;;;;;;13.40;6.00;;;;;;;27.93;36.95;101048.41;109991;1263;22013;-80
2023/08/11 07:33:43;;;;;;;8.50;4.90;;;;;;;27.94;36.48;101046.47;109836;1268;21973;-78
2023/08/11 07:36:12;;;;;;;6.60;4.50;;;;;;;28.02;36.37;101051.24;109983;1266;23060;-81
2023/08/11 07:38:40;;;;;;;8.80;4.70;;;;;;;28.09;35.55;101052.27;107729;1268;2762997;-81
2023/08/11 07:41:11;;;;;;;7.40;5.10;;;;;;;28.16;35.78;101053.94;110071;1268;21981;-80
2023/08/11 07:43:43;;;;;;;8.30;4.60;;;;;;;28.24;35.54;101046.69;109341;1274;21984;-78
2023/08/11 07:46:17;;;;;;;7.20;5.50;;;;;;;28.34;35.18;101047.10;109298;1273;21964;-79
2023/08/11 07:48:57;;;;;;;5.60;4.20;;;;;;;28.43;34.86;101051.74;108976;1278;22499;-79
2023/08/11 07:51:27;;;;;;;7.70;5.00;;;;;;;28.49;34.69;101054.11;108743;1278;22010;-79
2023/08/11 07:53:58;;;;;;;6.90;3.60;;;;;;;28.57;34.25;101054.45;108676;1282;22895;-78
2023/08/11 07:56:30;;;;;;;7.10;6.10;;;;;;;28.62;33.97;101052.02;108362;1287;22081;-77
2023/08/11 07:59:07;;;;;;;7.10;4.20;;;;;;;28.78;33.86;101054.40;108591;1286;22062;-77
2023/08/11 08:01:36;;;;;;;9.30;4.10;;;;;;;28.93;33.43;101056.02;108650;1281;23052;-81
2023/08/11 08:04:07;;;;;;;6.20;3.20;;;;;;;29.05;32.95;101051.04;109299;1273;23771;-77
2023/08/11 08:06:43;;;;;;;4.90;2.50;;;;;;;29.17;32.36;101052.46;109356;1269;22020;-80
2023/08/11 08:09:15;;;;;;;5.10;2.80;;;;;;;29.25;32.10;101052.08;109478;1272;22064;-80
2023/08/11 08:12:03;;;;;;;3.80;2.60;;;;;;;29.36;31.23;101052.81;109841;1267;22335;-80
2023/08/11 08:14:34;;;;;;;6.50;3.10;;;;;;;29.23;30.43;101053.48;110509;1263;22247;-80
2023/08/11 08:17:12;;;;;;;6.50;4.50;;;;;;;29.12;30.82;101052.62;110409;1265;22559;-80
2023/08/11 08:19:46;;;;;;;5.40;2.10;;;;;;;29.28;30.48;101058.84;110675;1264;21975;-79
2023/08/11 08:22:17;;;;;;;5.80;2.20;;;;;;;29.44;30.25;101063.94;110506;1264;22264;-79
2023/08/11 08:24:49;;;;;;;4.00;2.10;;;;;;;29.54;29.80;101062.88;110599;1264;23615;-80
2023/08/11 08:27:24;;;;;;;6.80;2.80;;;;;;;29.59;30.10;101065.41;110187;1263;22361;-80
2023/08/11 08:29:56;;;;;;;4.30;2.80;;;;;;;29.71;29.91;101065.21;110294;1263;22226;-78
2023/08/11 08:32:32;;;;;;;4.60;2.90;;;;;;;29.79;29.70;101063.86;110694;1263;22072;-78
2023/08/11 08:35:20;;;;;;;5.10;2.80;;;;;;;29.80;29.24;101062.99;110239;1264;24456;-78
2023/08/11 08:37:53;;;;;;;6.70;2.70;;;;;;;29.89;29.59;101071.54;110687;1264;22389;-79
2023/08/11 08:40:45;;;;;;;8.20;2.30;;;;;;;30.07;29.50;101073.52;110370;1263;23047;-79
2023/08/11 08:43:32;;;;;;;4.50;2.70;;;;;;;30.24;28.84;101073.05;110381;1263;22453;-79
2023/08/11 08:46:28;;;;;;;3.30;2.10;;;;;;;30.27;28.26;101072.60;110910;1257;21984;-80
2023/08/11 08:49:29;;;;;;;8.40;2.80;;;;;;;30.29;28.13;101068.81;110922;1258;23027;-80
2023/08/11 08:52:11;;;;;;;9.10;2.70;;;;;;;30.36;28.32;101064.78;111122;1258;21965;-79
2023/08/11 08:54:51;;;;;;;7.40;2.60;;;;;;;30.65;28.56;101061.05;111067;1258;23812;-79
2023/08/11 08:57:36;;;;;;;4.40;3.10;;;;;;;30.81;27.82;101060.30;110457;1264;22367;-79
2023/08/11 09:00:23;;;;;;;6.60;3.20;;;;;;;30.77;27.71;101059.09;111085;1264;21972;-84
2023/08/11 09:03:07;;;;;;;7.10;4.40;;;;;;;30.79;28.12;101056.64;110052;1266;22099;-80
2023/08/11 09:05:50;;;;;;;6.30;3.10;;;;;;;30.72;28.21;101052.19;110324;1259;22454;-79
2023/08/11 09:08:26;;;;;;;3.50;1.80;;;;;;;30.97;28.00;101058.38;110483;1265;23107;-79
2023/08/11 09:11:04;;;;;;;3.70;1.70;;;;;;;31.13;26.38;101056.49;110057;1270;21989;-79
2023/08/11 09:13:43;;;;;;;3.70;2.00;;;;;;;31.14;25.98;101058.78;109437;1274;22513;-79
2023/08/11 09:16:23;;;;;;;7.90;1.80;;;;;;;31.00;25.68;101061.74;109871;1270;22409;-80
2023/08/11 09:19:08;;;;;;;7.30;2.00;;;;;;;30.86;25.69;101063.16;109500;1274;22042;-79
2023/08/11 09:21:57;;;;;;;4.30;2.10;;;;;;;30.69;26.03;101056.77;109641;1274;23087;-80
2023/08/11 09:24:32;;;;;;;6.40;2.20;;;;;;;30.86;26.24;101051.84;109245;1273;23083;-80
2023/08/11 09:27:04;;;;;;;7.40;2.20;;;;;;;31.05;25.72;101051.27;109429;1274;22999;-78
2023/08/11 09:29:38;;;;;;;8.50;2.30;;;;;;;31.02;25.25;101055.60;109636;1268;23106;-80
2023/08/11 09:32:13;;;;;;;6.90;2.20;;;;;;;31.03;25.31;101051.09;110619;1261;21989;-79
2023/08/11 09:34:53;;;;;;;5.00;2.10;;;;;;;31.19;25.07;101054.17;110637;1264;21970;-81
2023/08/11 09:37:23;;;;;;;6.00;2.60;;;;;;;31.33;25.03;101048.52;110696;1259;21965;-79
2023/08/11 09:40:03;;;;;;;6.80;2.30;;;;;;;31.38;24.80;101047.77;110730;1263;22722;-80
2023/08/11 09:42:56;;;;;;;5.90;2.20;;;;;;;31.31;24.71;101046.80;109949;1263;21972;-80
2023/08/11 09:45:43;;;;;;;4.40;2.20;;;;;;;31.31;24.85;101044.80;109704;1269;22146;-82
2023/08/11 09:48:36;;;;;;;3.60;2.10;;;;;;;31.29;24.28;101048.73;109849;1268;22035;-79
2023/08/11 09:51:27;;;;;;;4.40;2.10;;;;;;;31.16;24.48;101058.70;109589;1272;22126;-82
2023/08/11 09:54:34;;;;;;;4.40;2.40;;;;;;;30.97;24.35;101059.80;109344;1273;22080;-80
2023/08/11 09:57:17;;;;;;;7.40;1.70;;;;;;;30.59;24.50;101054.84;109171;1273;21981;-80
2023/08/11 10:00:11;;;;;;;3.80;1.70;;;;;;;30.33;25.32;101057.54;109450;1270;21984;-81
2023/08/11 10:03:20;;;;;;;9.70;2.70;;;;;;;30.17;25.36;101057.03;109436;1274;21993;-81
2023/08/11 10:06:12;;;;;;;4.60;2.10;;;;;;;29.95;25.65;101052.16;109018;1279;21997;-81
2023/08/11 10:09:17;;;;;;;7.80;2.10;;;;;;;29.61;26.02;101054.48;109138;1275;21994;-81
2023/08/11 10:12:07;;;;;;;3.50;2.10;;;;;;;29.30;26.62;101054.04;109388;1275;23043;-81
2023/08/11 10:15:15;;;;;;;6.80;2.00;;;;;;;29.06;27.07;101053.27;109521;1269;21980;-80
2023/08/11 10:18:13;;;;;;;8.00;2.90;;;;;;;28.95;27.29;101048.84;109204;1275;22141;-81
2023/08/11 10:21:02;;;;;;;;;;;;;;;28.95;27.92;101051.23;108804;1278;23043;-80
2023/08/11 10:24:00;;;;;;;3.80;1.80;;;;;;;29.10;28.22;101053.73;109125;1277;23886;-80
2023/08/11 10:26:44;;;;;;;6.10;2.00;;;;;;;29.26;27.39;101057.27;108927;1280;23132;-80
2023/08/11 10:29:40;;;;;;;7.70;2.00;;;;;;;29.32;27.08;101051.63;108991;1280;22929;-80
2023/08/11 10:32:38;;;;;;;7.80;2.80;;;;;;;29.10;26.96;101059.46;108834;1279;23650;-80
2023/08/11 10:36:03;;;;;;;7.10;2.40;;;;;;;28.67;27.29;101058.76;109039;1277;22952;-79
2023/08/11 10:39:25;;;;;;;5.70;2.00;;;;;;;28.38;28.21;101054.77;108859;1276;21980;-83
2023/08/11 10:42:41;;;;;;;5.20;2.00;;;;;;;28.22;28.53;101053.55;109195;1276;23602;-80
2023/08/11 10:45:50;;;;;;;5.10;2.60;;;;;;;28.29;28.94;101054.01;109629;1272;24310;-80
2023/08/11 10:53:16;;;;;;;4.00;1.70;;;;;;;28.51;27.92;101048.63;108856;1283;21993;-82
2023/08/11 10:56:17;;;;;;;4.30;2.10;;;;;;;28.41;27.91;101042.02;108964;1279;22013;-82
2023/08/11 10:59:30;;;;;;;;;;;;;;;;;;;;;
2023/08/11 11:02:16;;;;;;;3.50;2.00;;;;;;;28.24;28.38;101041.15;109740;1273;22005;-80
2023/08/11 11:05:19;;;;;;;4.20;2.20;;;;;;;27.83;28.24;101044.88;109638;1270;23132;-82
2023/08/11 11:08:23;;;;;;;6.30;2.40;;;;;;;27.39;29.20;101047.13;110169;1270;23047;-83
2023/08/11 11:10:59;;;;;;;5.70;2.10;;;;;;;27.23;29.55;101043.05;110075;1270;23052;-83
2023/08/11 11:13:33;;;;;;;5.80;2.10;;;;;;;27.10;29.53;101045.42;109914;1269;22737;-81
2023/08/11 11:16:15;;;;;;;6.70;4.20;;;;;;;26.92;29.60;101046.25;109847;1270;23084;-84
2023/08/11 11:18:51;;;;;;;20.90;18.80;;;;;;;26.76;29.96;101049.73;110313;1269;22987;-83
2023/08/11 11:21:50;;;;;;;5.00;2.80;;;;;;;26.68;30.40;101046.39;110212;1270;22006;-84
2023/08/11 11:24:38;;;;;;;5.40;2.50;;;;;;;26.61;30.51;101044.53;110016;1269;21991;-80
2023/08/11 11:27:27;;;;;;;5.30;2.90;;;;;;;26.61;31.12;101046.31;110014;1270;22015;-79
2023/08/11 11:30:18;;;;;;;6.70;2.40;;;;;;;26.57;30.89;101046.36;110303;1263;21987;-79
2023/08/11 11:32:51;;;;;;;4.80;2.40;;;;;;;26.55;31.53;101048.01;110751;1259;21972;-81
2023/08/11 11:35:23;;;;;;;6.80;2.30;;;;;;;26.65;31.94;101045.30;110937;1260;22022;-82
2023/08/11 11:38:06;;;;;;;9.10;3.20;;;;;;;26.76;31.87;101046.84;110507;1266;22061;-79
2023/08/11 11:40:58;;;;;;;5.20;2.10;;;;;;;26.80;32.01;101049.75;110417;1265;22005;-79
2023/08/11 11:43:38;;;;;;;9.30;2.40;;;;;;;26.77;31.90;101044.13;110405;1266;21991;-78
2023/08/11 11:46:21;;;;;;;4.70;2.30;;;;;;;26.78;31.76;101040.49;109663;1271;22764;-79
2023/08/11 11:49:04;;;;;;;13.90;3.10;;;;;;;26.71;31.58;101046.48;110656;1244;22000;-85
2023/08/11 11:52:09;;;;;;;12.80;2.30;;;;;;;26.65;31.88;101045.41;111161;1258;21985;-78
2023/08/11 11:55:07;;;;;;;14.70;2.70;;;;;;;26.70;31.73;101047.45;110739;1263;22357;-83
2023/08/11 11:57:49;;;;;;;4.40;2.30;;;;;;;26.67;31.66;101049.52;110902;1263;22808;-78
2023/08/11 12:00:28;;;;;;;4.10;2.20;;;;;;;26.56;31.87;101044.63;110555;1263;22045;-82
2023/08/11 12:03:06;;;;;;;6.60;2.00;;;;;;;26.51;32.33;101042.97;110904;1263;22070;-79
2023/08/11 12:05:48;;;;;;;5.40;2.30;;;;;;;26.51;32.36;101046.91;110112;1260;22004;-79
2023/08/11 12:08:42;;;;;;;3.20;2.20;;;;;;;26.45;32.03;101046.34;110042;1268;23812;-79
2023/08/11 12:11:24;;;;;;;4.60;2.40;;;;;;;26.35;31.72;101046.41;110370;1268;21982;-79
2023/08/11 12:14:05;;;;;;;6.00;2.00;;;;;;;26.28;31.79;101044.80;110033;1269;21973;-79